createdAt,value
2018-11-06T00:00:23.743Z,99.90
2018-11-06T00:02:57.217Z,99.80
2018-11-06T00:05:25.731Z,99.90
2018-11-06T00:07:54.004Z,99.90
2018-11-06T00:10:22.248Z,99.90
2018-11-06T00:12:50.507Z,99.90
2018-11-06T00:15:18.767Z,99.90
2018-11-06T00:17:47.022Z,99.90
2018-11-06T00:20:15.763Z,99.90
2018-11-06T00:22:44.011Z,99.90
2018-11-06T00:25:13.034Z,99.90
2018-11-06T00:27:41.632Z,99.90
2018-11-06T00:30:11.606Z,99.90
2018-11-06T00:32:40.632Z,99.90
2018-11-06T00:35:10.614Z,99.90
2018-11-06T00:37:39.103Z,99.90
2018-11-06T00:40:07.350Z,99.90
2018-11-06T00:42:35.687Z,99.90
2018-11-06T00:45:03.955Z,99.90
2018-11-06T00:47:32.175Z,99.90
2018-11-06T00:50:00.440Z,99.90
2018-11-06T00:52:28.671Z,99.90
2018-11-06T00:54:56.902Z,99.90
2018-11-06T00:57:25.230Z,99.90
2018-11-06T00:59:53.950Z,99.90
2018-11-06T01:02:22.679Z,99.90
2018-11-06T01:04:51.063Z,99.90
2018-11-06T01:07:19.299Z,99.90
2018-11-06T01:09:47.536Z,99.90
2018-11-06T01:12:15.838Z,99.90
2018-11-06T01:14:44.071Z,99.90
2018-11-06T01:17:12.311Z,99.90
2018-11-06T01:19:40.875Z,99.90
2018-11-06T01:22:09.111Z,99.90
2018-11-06T01:24:37.359Z,99.90
2018-11-06T01:27:05.829Z,99.90
2018-11-06T01:29:34.079Z,99.90
2018-11-06T01:32:02.313Z,99.90
2018-11-06T01:34:30.575Z,99.90
2018-11-06T01:36:58.791Z,99.90
2018-11-06T01:39:27.026Z,99.90
2018-11-06T01:41:55.271Z,99.90
2018-11-06T01:44:23.506Z,99.90
2018-11-06T01:46:51.732Z,99.90
2018-11-06T01:49:19.999Z,99.90
2018-11-06T01:51:48.235Z,99.90
2018-11-06T01:54:16.474Z,99.90
2018-11-06T01:56:45.005Z,99.90
2018-11-06T01:59:13.228Z,99.90
2018-11-06T02:01:41.501Z,99.90
2018-11-06T02:04:09.725Z,99.90
2018-11-06T02:06:37.954Z,99.90
2018-11-06T02:09:07.962Z,99.90
2018-11-06T02:11:36.279Z,99.90
2018-11-06T02:14:04.922Z,99.90
2018-11-06T02:16:33.179Z,99.90
2018-11-06T02:19:01.436Z,99.90
2018-11-06T02:21:29.659Z,99.90
2018-11-06T02:23:57.906Z,99.90
2018-11-06T02:26:26.144Z,99.90
2018-11-06T02:28:54.355Z,99.90
2018-11-06T02:31:22.629Z,99.90
2018-11-06T02:33:50.964Z,99.90
2018-11-06T02:36:19.287Z,99.90
2018-11-06T02:38:47.538Z,99.90
2018-11-06T02:41:16.134Z,99.90
2018-11-06T02:43:44.354Z,99.90
2018-11-06T02:46:12.591Z,99.90
2018-11-06T02:48:40.847Z,99.90
2018-11-06T02:51:09.066Z,99.90
2018-11-06T02:53:37.335Z,99.90
2018-11-06T02:56:05.867Z,99.90
2018-11-06T02:58:34.120Z,99.90
2018-11-06T03:01:02.346Z,99.90
2018-11-06T03:03:34.821Z,99.90
2018-11-06T03:06:03.047Z,99.90
2018-11-06T03:08:31.255Z,99.90
2018-11-06T03:10:59.516Z,99.90
2018-11-06T03:13:27.745Z,99.90
2018-11-06T03:15:55.954Z,99.90
2018-11-06T03:18:24.254Z,99.90
2018-11-06T03:20:52.478Z,99.90
2018-11-06T03:23:20.701Z,99.90
2018-11-06T03:25:48.903Z,99.90
2018-11-06T03:28:17.160Z,99.90
2018-11-06T03:30:45.394Z,99.90
2018-11-06T03:33:13.625Z,99.90
2018-11-06T03:35:41.832Z,99.90
2018-11-06T03:38:10.047Z,99.90
2018-11-06T03:40:38.290Z,99.90
2018-11-06T03:43:06.502Z,99.90
2018-11-06T03:45:34.719Z,99.90
2018-11-06T03:48:03.033Z,99.90
2018-11-06T03:50:31.309Z,99.90
2018-11-06T03:52:59.540Z,99.90
2018-11-06T03:55:27.798Z,99.90
2018-11-06T03:57:56.044Z,99.90
2018-11-06T04:00:24.277Z,99.90
2018-11-06T04:02:52.611Z,99.90
2018-11-06T04:05:20.891Z,99.90
2018-11-06T04:07:49.119Z,99.90
2018-11-06T04:10:17.419Z,99.90
2018-11-06T04:12:45.649Z,99.90
2018-11-06T04:15:14.286Z,99.90
2018-11-06T04:17:43.519Z,99.90
2018-11-06T04:20:11.857Z,99.90
2018-11-06T04:22:40.716Z,99.90
2018-11-06T04:25:09.444Z,99.90
2018-11-06T04:27:37.701Z,99.90
2018-11-06T04:30:08.003Z,99.90
2018-11-06T04:32:36.282Z,99.90
2018-11-06T04:35:04.778Z,99.90
2018-11-06T04:37:33.022Z,99.90
2018-11-06T04:40:01.283Z,99.90
2018-11-06T04:42:29.510Z,99.90
2018-11-06T04:44:57.727Z,99.90
2018-11-06T04:47:25.959Z,99.90
2018-11-06T04:49:54.203Z,99.90
2018-11-06T04:52:22.420Z,99.90
2018-11-06T04:54:50.658Z,99.90
2018-11-06T04:57:18.883Z,99.90
2018-11-06T04:59:47.095Z,99.90
2018-11-06T05:02:15.414Z,99.90
2018-11-06T05:04:43.565Z,99.90
2018-11-06T05:07:11.798Z,99.90
2018-11-06T05:09:40.116Z,99.90
2018-11-06T05:12:08.340Z,99.90
2018-11-06T05:14:36.567Z,99.90
2018-11-06T05:17:04.823Z,99.90
2018-11-06T05:19:35.995Z,99.90
2018-11-06T05:22:04.584Z,99.90
2018-11-06T05:24:32.857Z,99.90
2018-11-06T05:27:01.073Z,99.90
2018-11-06T05:29:29.286Z,99.90
2018-11-06T05:31:57.502Z,99.90
2018-11-06T05:34:25.718Z,99.90
2018-11-06T05:36:53.930Z,99.90
2018-11-06T05:39:22.281Z,99.90
2018-11-06T05:41:50.498Z,99.90
2018-11-06T05:44:18.807Z,99.90
2018-11-06T05:46:47.136Z,99.90
2018-11-06T05:49:15.346Z,99.90
2018-11-06T05:51:43.634Z,99.90
2018-11-06T05:54:11.898Z,99.90
2018-11-06T05:56:40.125Z,99.90
2018-11-06T05:59:08.811Z,99.90
2018-11-06T06:01:37.137Z,99.90
2018-11-06T06:04:05.547Z,99.90
2018-11-06T06:06:33.790Z,99.90
2018-11-06T06:09:02.128Z,99.90
2018-11-06T06:11:30.342Z,99.90
2018-11-06T06:13:58.579Z,99.90
2018-11-06T06:16:26.895Z,99.90
2018-11-06T06:18:55.140Z,99.90
2018-11-06T06:21:23.393Z,99.90
2018-11-06T06:23:51.717Z,99.90
2018-11-06T06:26:19.935Z,99.90
2018-11-06T06:28:48.156Z,99.90
2018-11-06T06:31:16.414Z,99.90
2018-11-06T06:33:44.625Z,99.90
2018-11-06T06:36:12.814Z,99.90
2018-11-06T06:38:41.142Z,99.90
2018-11-06T06:41:09.276Z,99.90
2018-11-06T06:43:37.490Z,99.90
2018-11-06T06:46:05.738Z,99.90
2018-11-06T06:48:33.949Z,99.90
2018-11-06T06:51:02.183Z,99.90
2018-11-06T06:53:30.422Z,99.90
2018-11-06T06:55:58.650Z,99.90
2018-11-06T06:58:26.873Z,99.90
2018-11-06T07:00:55.143Z,99.90
2018-11-06T07:03:23.356Z,99.90
2018-11-06T07:05:51.587Z,99.90
2018-11-06T07:08:19.849Z,99.90
2018-11-06T07:10:48.066Z,99.90
2018-11-06T07:13:16.273Z,99.90
2018-11-06T07:15:44.499Z,99.90
2018-11-06T07:18:12.732Z,99.90
2018-11-06T07:20:40.990Z,99.90
2018-11-06T07:23:09.301Z,99.90
2018-11-06T07:25:37.601Z,99.90
2018-11-06T07:28:06.129Z,99.90
2018-11-06T07:30:34.649Z,99.90
2018-11-06T07:33:02.865Z,99.90
2018-11-06T07:35:31.271Z,99.90
2018-11-06T07:37:59.395Z,99.90
2018-11-06T07:40:27.685Z,99.90
2018-11-06T07:42:55.879Z,99.90
2018-11-06T07:45:24.189Z,99.90
2018-11-06T07:47:52.424Z,99.90
2018-11-06T07:50:20.731Z,99.90
2018-11-06T07:52:48.872Z,99.90
2018-11-06T07:55:18.476Z,99.90
2018-11-06T07:57:46.748Z,99.90
2018-11-06T08:00:17.384Z,99.90
2018-11-06T08:02:46.679Z,99.90
2018-11-06T08:05:15.250Z,99.90
2018-11-06T08:07:44.463Z,99.90
2018-11-06T08:10:12.693Z,99.90
2018-11-06T08:12:42.634Z,99.90
2018-11-06T08:15:11.482Z,99.90
2018-11-06T08:17:40.118Z,99.90
2018-11-06T08:20:08.469Z,99.90
2018-11-06T08:22:37.115Z,99.90
2018-11-06T08:25:05.766Z,99.90
2018-11-06T08:27:34.027Z,99.90
2018-11-06T08:30:02.243Z,99.90
2018-11-06T08:32:31.065Z,99.90
2018-11-06T08:34:58.693Z,99.90
2018-11-06T08:37:26.982Z,99.90
2018-11-06T08:39:55.206Z,99.90
2018-11-06T08:42:23.493Z,99.90
2018-11-06T08:44:51.679Z,99.90
2018-11-06T08:47:19.908Z,99.90
2018-11-06T08:49:48.140Z,99.90
2018-11-06T08:52:16.366Z,99.90
2018-11-06T08:54:44.706Z,99.90
2018-11-06T08:57:12.840Z,99.90
2018-11-06T08:59:41.278Z,99.90
2018-11-06T09:02:09.714Z,99.90
2018-11-06T09:04:38.075Z,99.90
2018-11-06T09:07:06.511Z,99.90
2018-11-06T09:09:34.803Z,99.90
2018-11-06T09:12:03.052Z,99.90
2018-11-06T09:14:31.311Z,99.90
2018-11-06T09:16:59.558Z,99.90
2018-11-06T09:19:27.782Z,99.90
2018-11-06T09:21:56.411Z,99.90
2018-11-06T09:24:24.635Z,99.90
2018-11-06T09:26:52.852Z,99.90
2018-11-06T09:29:21.104Z,99.90
2018-11-06T09:31:49.355Z,99.90
2018-11-06T09:34:17.581Z,99.80
2018-11-06T09:36:45.826Z,99.90
2018-11-06T09:39:14.070Z,99.80
2018-11-06T09:41:42.391Z,99.00
2018-11-06T09:44:10.738Z,98.90
2018-11-06T09:46:38.968Z,99.10
2018-11-06T09:49:07.588Z,98.90
2018-11-06T09:51:36.148Z,98.80
2018-11-06T09:54:05.469Z,98.90
2018-11-06T09:56:33.689Z,98.70
2018-11-06T09:59:02.130Z,98.40
2018-11-06T10:01:30.408Z,98.50
2018-11-06T10:03:58.675Z,98.50
2018-11-06T10:06:27.102Z,98.60
2018-11-06T10:08:55.235Z,98.20
2018-11-06T10:11:23.503Z,98.50
2018-11-06T10:13:51.719Z,98.30
2018-11-06T10:16:19.940Z,98.30
2018-11-06T10:18:48.175Z,98.10
2018-11-06T10:21:16.530Z,98.00
2018-11-06T10:23:44.847Z,98.00
2018-11-06T10:26:13.096Z,97.90
2018-11-06T10:28:41.398Z,98.00
2018-11-06T10:31:09.810Z,98.00
2018-11-06T10:33:38.049Z,98.30
2018-11-06T10:36:06.384Z,98.20
2018-11-06T10:38:34.603Z,98.20
2018-11-06T10:41:02.854Z,98.10
2018-11-06T10:43:31.120Z,98.00
2018-11-06T10:45:59.393Z,98.10
2018-11-06T10:48:27.629Z,98.00
2018-11-06T10:50:55.877Z,97.80
2018-11-06T10:53:24.131Z,98.00
2018-11-06T10:55:52.357Z,98.20
2018-11-06T10:58:20.618Z,98.10
2018-11-06T11:00:54.250Z,98.10
2018-11-06T11:03:32.691Z,98.00
2018-11-06T11:06:01.220Z,97.90
2018-11-06T11:08:29.454Z,98.00
2018-11-06T11:10:57.862Z,97.90
2018-11-06T11:13:26.159Z,97.90
2018-11-06T11:15:54.463Z,98.10
2018-11-06T11:18:22.730Z,97.90
2018-11-06T11:20:50.951Z,97.70
2018-11-06T11:23:19.189Z,97.50
2018-11-06T11:25:47.482Z,97.70
2018-11-06T11:28:15.667Z,97.40
2018-11-06T11:30:43.887Z,97.30
2018-11-06T11:33:12.173Z,97.80
2018-11-06T11:35:40.395Z,97.50
2018-11-06T11:38:08.729Z,97.50
2018-11-06T11:40:36.999Z,97.50
2018-11-06T11:43:05.871Z,96.90
2018-11-06T11:45:34.134Z,97.30
2018-11-06T11:48:02.790Z,97.30
2018-11-06T11:50:31.028Z,97.10
2018-11-06T11:52:59.275Z,97.10
2018-11-06T11:55:27.761Z,97.10
2018-11-06T11:57:55.983Z,97.10
2018-11-06T12:00:27.153Z,96.70
2018-11-06T12:02:55.685Z,97.10
2018-11-06T12:05:23.922Z,96.90
2018-11-06T12:07:52.198Z,96.80
2018-11-06T12:10:20.445Z,96.80
2018-11-06T12:12:48.671Z,96.60
2018-11-06T12:15:18.066Z,96.90
2018-11-06T12:17:47.129Z,97.00
2018-11-06T12:20:15.907Z,96.90
2018-11-06T12:22:44.141Z,96.70
2018-11-06T12:25:12.728Z,97.10
2018-11-06T12:27:40.943Z,96.90
2018-11-06T12:30:11.121Z,97.10
2018-11-06T12:32:40.032Z,96.70
2018-11-06T12:35:09.086Z,96.70
2018-11-06T12:37:37.458Z,97.10
2018-11-06T12:40:06.055Z,96.70
2018-11-06T12:42:34.315Z,96.90
2018-11-06T12:45:02.549Z,97.10
2018-11-06T12:47:30.858Z,97.00
2018-11-06T12:49:59.109Z,96.70
2018-11-06T12:52:27.383Z,96.80
2018-11-06T12:54:55.627Z,96.70
2018-11-06T12:57:23.877Z,96.40
2018-11-06T12:59:52.096Z,96.60
2018-11-06T13:02:20.370Z,96.70
2018-11-06T13:04:48.603Z,96.70
2018-11-06T13:07:16.836Z,96.80
2018-11-06T13:09:45.174Z,96.70
2018-11-06T13:12:13.426Z,96.80
2018-11-06T13:14:41.671Z,96.50
2018-11-06T13:17:10.000Z,96.60
2018-11-06T13:19:38.155Z,96.20
2018-11-06T13:22:07.251Z,96.30
2018-11-06T13:24:35.525Z,96.60
2018-11-06T13:27:03.775Z,96.30
2018-11-06T13:29:32.000Z,96.50
2018-11-06T13:32:00.259Z,96.30
2018-11-06T13:34:28.487Z,96.60
2018-11-06T13:36:56.716Z,96.40
2018-11-06T13:39:24.939Z,96.70
2018-11-06T13:41:53.207Z,96.50
2018-11-06T13:44:21.827Z,96.70
2018-11-06T13:46:52.684Z,96.80
2018-11-06T13:49:20.903Z,96.90
2018-11-06T13:51:49.194Z,96.80
2018-11-06T13:54:17.423Z,96.50
2018-11-06T13:56:45.672Z,96.60
2018-11-06T13:59:13.987Z,96.40
2018-11-06T14:01:42.222Z,96.70
2018-11-06T14:04:10.502Z,96.80
2018-11-06T14:06:38.771Z,96.80
2018-11-06T14:09:08.631Z,96.90
2018-11-06T14:11:36.854Z,96.70
2018-11-06T14:14:05.468Z,96.80
2018-11-06T14:16:33.697Z,97.00
2018-11-06T14:19:01.968Z,97.00
2018-11-06T14:21:30.255Z,96.80
2018-11-06T14:23:58.487Z,96.90
2018-11-06T14:26:26.740Z,96.90
2018-11-06T14:28:54.998Z,96.80
2018-11-06T14:31:23.260Z,97.20
2018-11-06T14:33:51.496Z,97.00
2018-11-06T14:36:19.842Z,97.00
2018-11-06T14:38:48.073Z,97.10
2018-11-06T14:41:16.299Z,97.10
2018-11-06T14:43:44.582Z,97.70
2018-11-06T14:46:12.860Z,97.70
2018-11-06T14:48:41.247Z,97.90
2018-11-06T14:51:09.336Z,97.80
2018-11-06T14:53:37.575Z,97.60
2018-11-06T14:56:07.515Z,97.70
2018-11-06T14:58:35.784Z,97.60
2018-11-06T15:01:04.074Z,97.50
2018-11-06T15:03:32.318Z,97.50
2018-11-06T15:06:00.538Z,97.50
2018-11-06T15:08:28.760Z,97.60
2018-11-06T15:10:56.986Z,97.70
2018-11-06T15:13:25.235Z,97.40
2018-11-06T15:15:56.441Z,97.60
2018-11-06T15:18:27.112Z,98.30
2018-11-06T15:20:55.444Z,98.10
2018-11-06T15:23:25.163Z,98.20
2018-11-06T15:25:56.601Z,98.10
2018-11-06T15:28:24.822Z,98.30
2018-11-06T15:30:53.056Z,98.20
2018-11-06T15:33:24.327Z,98.00
2018-11-06T15:35:56.397Z,98.40
2018-11-06T15:38:30.476Z,98.00
2018-11-06T15:40:59.916Z,98.00
2018-11-06T15:43:31.069Z,97.60
2018-11-06T15:46:03.934Z,97.90
2018-11-06T15:48:39.630Z,98.10
2018-11-06T15:51:07.790Z,98.10
2018-11-06T15:53:37.148Z,97.80
2018-11-06T15:56:06.512Z,97.90
2018-11-06T15:58:34.752Z,97.70
2018-11-06T16:01:03.007Z,98.00
2018-11-06T16:03:31.371Z,98.00
2018-11-06T16:05:59.598Z,97.90
2018-11-06T16:08:27.850Z,98.40
2018-11-06T16:10:57.713Z,98.60
2018-11-06T16:13:28.880Z,98.40
2018-11-06T16:16:01.972Z,98.80
2018-11-06T16:18:30.226Z,98.50
2018-11-06T16:20:58.519Z,98.50
2018-11-06T16:23:26.745Z,98.70
2018-11-06T16:25:54.980Z,98.50
2018-11-06T16:28:23.214Z,98.60
2018-11-06T16:30:51.459Z,98.50
2018-11-06T16:33:19.708Z,99.10
2018-11-06T16:35:47.974Z,99.70
2018-11-06T16:38:16.347Z,99.20
2018-11-06T16:40:44.578Z,99.10
2018-11-06T16:43:12.819Z,99.40
2018-11-06T16:45:41.090Z,99.50
2018-11-06T16:48:09.486Z,99.40
2018-11-06T16:50:37.719Z,99.60
2018-11-06T16:53:05.993Z,99.90
2018-11-06T16:55:34.251Z,99.90
2018-11-06T16:58:02.492Z,99.90
2018-11-06T17:00:30.887Z,99.30
2018-11-06T17:02:59.179Z,98.90
2018-11-06T17:05:27.475Z,99.30
2018-11-06T17:07:55.727Z,99.50
2018-11-06T17:10:24.021Z,99.40
2018-11-06T17:12:52.253Z,99.30
2018-11-06T17:15:21.827Z,99.60
2018-11-06T17:17:51.298Z,99.80
2018-11-06T17:20:20.115Z,99.40
2018-11-06T17:22:48.422Z,99.40
2018-11-06T17:25:17.763Z,99.40
2018-11-06T17:27:46.033Z,99.60
2018-11-06T17:30:15.572Z,99.60
2018-11-06T17:32:44.207Z,99.70
2018-11-06T17:35:14.463Z,99.70
2018-11-06T17:37:42.857Z,99.90
2018-11-06T17:40:13.787Z,99.90
2018-11-06T17:42:42.574Z,99.90
2018-11-06T17:45:13.572Z,99.90
2018-11-06T17:47:42.203Z,99.90
2018-11-06T17:50:12.103Z,99.90
2018-11-06T17:52:40.379Z,99.90
2018-11-06T17:55:10.487Z,99.90
2018-11-06T17:57:39.083Z,99.90
2018-11-06T18:00:10.247Z,99.90
2018-11-06T18:02:39.228Z,99.90
2018-11-06T18:05:07.656Z,99.90
2018-11-06T18:07:36.331Z,99.90
2018-11-06T18:10:05.000Z,99.90
2018-11-06T18:12:33.250Z,99.90
2018-11-06T18:15:01.579Z,99.90
2018-11-06T18:17:29.883Z,99.90
2018-11-06T18:19:58.078Z,99.90
2018-11-06T18:22:26.458Z,99.90
2018-11-06T18:24:54.715Z,99.90
2018-11-06T18:27:22.973Z,99.90
2018-11-06T18:29:51.386Z,99.90
2018-11-06T18:32:19.784Z,99.90
2018-11-06T18:34:47.999Z,99.90
2018-11-06T18:37:16.286Z,99.90
2018-11-06T18:39:44.530Z,99.90
2018-11-06T18:42:12.927Z,99.90
2018-11-06T18:44:41.196Z,99.90
2018-11-06T18:47:09.454Z,99.90
2018-11-06T18:49:37.721Z,99.90
2018-11-06T18:52:06.079Z,99.90
2018-11-06T18:54:34.892Z,99.90
2018-11-06T18:57:03.685Z,99.90
2018-11-06T18:59:31.963Z,99.90
2018-11-06T19:02:00.676Z,99.90
2018-11-06T19:04:29.616Z,99.90
2018-11-06T19:06:58.310Z,99.90
2018-11-06T19:09:27.044Z,99.90
2018-11-06T19:11:55.918Z,99.90
2018-11-06T19:14:24.780Z,99.90
2018-11-06T19:16:53.680Z,99.90
2018-11-06T19:19:22.271Z,99.90
2018-11-06T19:21:51.145Z,99.90
2018-11-06T19:24:20.029Z,99.90
2018-11-06T19:26:49.045Z,99.90
2018-11-06T19:29:17.978Z,99.90
2018-11-06T19:31:46.944Z,99.90
2018-11-06T19:34:15.909Z,99.90
2018-11-06T19:36:44.726Z,99.90
2018-11-06T19:39:14.082Z,99.90
2018-11-06T19:41:42.416Z,99.90
2018-11-06T19:44:10.660Z,99.90
2018-11-06T19:46:38.963Z,99.90
2018-11-06T19:49:07.199Z,99.90
2018-11-06T19:51:36.099Z,99.90
2018-11-06T19:54:04.372Z,99.90
2018-11-06T19:56:32.575Z,99.90
2018-11-06T19:59:00.910Z,99.90
2018-11-06T20:01:29.171Z,99.90
2018-11-06T20:03:57.440Z,99.90
2018-11-06T20:06:25.662Z,99.90
2018-11-06T20:08:53.900Z,99.90
2018-11-06T20:11:22.175Z,99.90
2018-11-06T20:13:50.543Z,99.90
2018-11-06T20:16:18.777Z,99.90
2018-11-06T20:18:47.007Z,99.90
2018-11-06T20:21:15.355Z,99.90
2018-11-06T20:23:43.624Z,99.90
2018-11-06T20:26:11.804Z,99.90
2018-11-06T20:28:40.098Z,99.90
2018-11-06T20:31:08.386Z,99.90
2018-11-06T20:33:36.779Z,99.90
2018-11-06T20:36:04.879Z,99.90
2018-11-06T20:38:33.132Z,99.90
2018-11-06T20:41:01.377Z,99.90
2018-11-06T20:43:29.696Z,99.90
2018-11-06T20:45:57.961Z,99.90
2018-11-06T20:48:26.204Z,99.90
2018-11-06T20:50:54.447Z,99.90
2018-11-06T20:53:22.740Z,99.90
2018-11-06T20:55:50.918Z,99.90
2018-11-06T20:58:19.159Z,99.90
2018-11-06T21:00:47.370Z,99.90
2018-11-06T21:03:15.598Z,99.90
2018-11-06T21:05:43.895Z,99.90
2018-11-06T21:08:12.067Z,99.90
2018-11-06T21:10:40.326Z,99.90
2018-11-06T21:13:08.594Z,99.90
2018-11-06T21:15:36.768Z,99.90
2018-11-06T21:18:05.114Z,99.90
2018-11-06T21:20:34.159Z,99.90
2018-11-06T21:23:02.411Z,99.90
2018-11-06T21:25:30.741Z,99.90
2018-11-06T21:27:58.895Z,99.90
2018-11-06T21:30:27.134Z,99.90
2018-11-06T21:32:55.395Z,99.90
2018-11-06T21:35:23.641Z,99.90
2018-11-06T21:37:51.954Z,99.90
2018-11-06T21:40:21.294Z,99.90
2018-11-06T21:42:49.882Z,99.90
2018-11-06T21:45:18.575Z,99.90
2018-11-06T21:47:47.542Z,99.90
2018-11-06T21:50:16.462Z,99.90
2018-11-06T21:52:44.714Z,99.90
2018-11-06T21:55:14.131Z,99.90
2018-11-06T21:57:42.435Z,99.90
2018-11-06T22:00:13.061Z,99.90
2018-11-06T22:02:41.196Z,99.90
2018-11-06T22:05:11.207Z,99.90
2018-11-06T22:07:39.509Z,99.90
2018-11-06T22:10:09.369Z,99.90
2018-11-06T22:12:37.736Z,99.90
2018-11-06T22:15:07.051Z,99.90
2018-11-06T22:17:35.331Z,99.90
2018-11-06T22:20:03.754Z,99.90
2018-11-06T22:22:32.028Z,99.90
2018-11-06T22:25:00.263Z,99.90
2018-11-06T22:27:28.548Z,99.90
2018-11-06T22:29:56.763Z,99.90
2018-11-06T22:32:25.076Z,99.90
2018-11-06T22:34:53.340Z,99.90
2018-11-06T22:37:21.617Z,99.90
2018-11-06T22:39:49.815Z,99.90
2018-11-06T22:42:18.164Z,99.90
2018-11-06T22:44:46.383Z,99.90
2018-11-06T22:47:14.616Z,99.90
2018-11-06T22:49:42.880Z,99.90
2018-11-06T22:52:11.180Z,99.90
2018-11-06T22:54:39.406Z,99.90
2018-11-06T22:57:07.662Z,99.90
2018-11-06T22:59:35.922Z,99.90
2018-11-06T23:02:04.194Z,99.90
2018-11-06T23:04:32.434Z,99.90
2018-11-06T23:07:00.766Z,99.90
2018-11-06T23:09:28.892Z,99.90
2018-11-06T23:11:57.123Z,99.90
2018-11-06T23:14:25.352Z,99.90
2018-11-06T23:16:53.582Z,99.90
2018-11-06T23:19:21.822Z,99.90
2018-11-06T23:21:50.133Z,99.90
2018-11-06T23:24:18.361Z,99.90
2018-11-06T23:26:46.605Z,99.90
2018-11-06T23:29:14.822Z,99.90
2018-11-06T23:31:43.122Z,99.90
2018-11-06T23:34:11.342Z,99.90
2018-11-06T23:36:39.589Z,99.90
2018-11-06T23:39:08.957Z,99.90
2018-11-06T23:41:37.333Z,99.90
2018-11-06T23:44:05.695Z,99.90
2018-11-06T23:46:33.951Z,99.90
2018-11-06T23:49:02.272Z,99.90
2018-11-06T23:51:30.485Z,99.90
2018-11-06T23:53:58.707Z,99.90
2018-11-06T23:56:26.961Z,99.90
2018-11-06T23:58:55.183Z,99.90
